This is the latest recevied weather packets stored in our database for station/object OK1FCB-1. If no packets are shown the sender has not sent any weather packets the latest 10 day(s).
| Time | Temp. | Humidity | Pressure | Rain* | Wind** | Luminosity | Snow |
|---|---|---|---|---|---|---|---|
| 1778190166 | 10.56° C | 70% | 1019.7 hPa | - | - | - | - |
| 1778189268 | 10.56° C | 70% | 1019.7 hPa | - | - | - | - |
| 1778186575 | 11.11° C | 69% | 1019.2 hPa | - | - | - | - |
| 1778185678 | 11.67° C | 68% | 1019 hPa | - | - | - | - |
| 1778182989 | 11.11° C | 69% | 1018.5 hPa | - | - | - | - |
| 1778178498 | 13.33° C | 61% | 1017.5 hPa | - | - | - | - |
| 1778176703 | 15° C | 57% | 1017.3 hPa | - | - | - | - |
| 1778174916 | 17.78° C | 49% | 1016.7 hPa | - | - | - | - |
| 1778169547 | 24.44° C | 39% | 1016.1 hPa | - | - | - | - |
| 1778168644 | 25° C | 36% | 1016.1 hPa | - | - | - | - |
| 1778165953 | 24.44° C | 40% | 1016 hPa | - | - | - | - |
| 1778162357 | 22.78° C | 42% | 1016.1 hPa | - | - | - | - |
| 1778160559 | 21.11° C | 46% | 1016 hPa | - | - | - | - |
| 1778159659 | 22.22° C | 44% | 1016 hPa | - | - | - | - |
| 1778158767 | 21.67° C | 47% | 1016 hPa | - | - | - | - |
| 1778158761 | 21.67° C | 47% | 1016 hPa | - | - | - | - |
| 1778157865 | 22.22° C | 43% | 1015.8 hPa | - | - | - | - |
| 1778156068 | 21.11° C | 50% | 1015.7 hPa | - | - | - | - |
| 1778154273 | 20.56° C | 53% | 1015.7 hPa | - | - | - | - |
| 1778147991 | 20.56° C | 53% | 1015.2 hPa | - | - | - | - |
| 1778144396 | 17.78° C | 62% | 1015 hPa | - | - | - | - |
| 1778141706 | 16.67° C | 67% | 1014.6 hPa | - | - | - | - |
| 1778139903 | 15.56° C | 68% | 1014.7 hPa | - | - | - | - |
| 1778139011 | 15.56° C | 70% | 1014.6 hPa | - | - | - | - |
| 1778139005 | 15.56° C | 70% | 1014.6 hPa | - | - | - | - |
* Rain since midnight (hover to see other rain measurements)
** Current wind speed in m/s (hover to see current wind gust speed)